Time;durP1;ratioP1;P1;durP2;ratioP2;P2;SDS_P1;SDS_P2;PMS_P1;PMS_P2;Temp;Humidity;BMP_temperature;BMP_pressure;BME280_temperature;BME280_humidity;BME280_pressure;Samples;Min_cycle;Max_cycle;Signal;HPM_P1;HPM_P2
2023/11/23 00:04:56;;;;;;;41.30;24.40;;;;;;;-1.33;82.98;99576.28;226244;1276;22624;-75
2023/11/23 00:09:59;;;;;;;30.90;17.60;;;;;;;-1.32;83.27;99566.52;226154;1268;22547;-74
2023/11/23 00:15:02;;;;;;;33.80;21.70;;;;;;;-1.31;83.19;99563.35;226358;1275;24249;-74
2023/11/23 00:20:06;;;;;;;37.20;21.20;;;;;;;-1.33;83.06;99556.36;226232;1276;22549;-74
2023/11/23 00:25:11;;;;;;;38.10;23.00;;;;;;;-1.31;83.17;99547.63;226587;1272;22548;-74
2023/11/23 00:30:14;;;;;;;41.80;24.20;;;;;;;-1.31;83.04;99538.31;226254;1276;22558;-74
2023/11/23 00:35:17;;;;;;;40.10;24.60;;;;;;;-1.35;83.57;99526.84;226243;1276;22540;-74
2023/11/23 00:40:19;;;;;;;37.90;22.40;;;;;;;-1.39;83.39;99515.15;226286;1276;22531;-74
2023/11/23 00:45:21;;;;;;;44.90;26.10;;;;;;;-1.47;83.27;99520.61;226331;1276;22574;-74
2023/11/23 00:50:23;;;;;;;37.40;21.60;;;;;;;-1.53;83.35;99503.38;226201;1270;25272;-74
2023/11/23 00:55:26;;;;;;;37.60;22.60;;;;;;;-1.61;83.49;99496.11;226292;1276;25430;-73
2023/11/23 01:00:28;;;;;;;37.40;22.30;;;;;;;-1.69;83.58;99482.30;226349;1270;22552;-74
2023/11/23 01:05:31;;;;;;;37.60;23.50;;;;;;;-1.74;83.82;99489.69;226305;1276;25422;-73
2023/11/23 01:10:33;;;;;;;32.70;20.10;;;;;;;-1.78;83.90;99479.89;226342;1276;22597;-75
2023/11/23 01:15:35;;;;;;;34.70;18.60;;;;;;;-1.82;83.95;99463.88;226357;1273;22591;-74
2023/11/23 01:20:37;;;;;;;43.30;23.30;;;;;;;-1.85;84.12;99452.00;226370;1273;22541;-73
2023/11/23 01:25:39;;;;;;;38.30;20.50;;;;;;;-1.88;84.49;99450.48;226225;1276;22597;-75
2023/11/23 01:30:42;;;;;;;40.90;23.70;;;;;;;-1.91;84.49;99439.56;226293;1273;22548;-75
2023/11/23 01:35:44;;;;;;;32.80;19.00;;;;;;;-1.90;84.56;99422.94;226368;1275;22668;-76
2023/11/23 01:40:46;;;;;;;39.00;20.90;;;;;;;-1.89;84.85;99418.73;226338;1276;23069;-74
2023/11/23 01:45:49;;;;;;;36.20;20.50;;;;;;;-1.87;84.98;99408.98;226227;1273;22547;-75
2023/11/23 01:50:53;;;;;;;39.50;23.00;;;;;;;-1.86;85.08;99401.31;226281;1276;22697;-75
2023/11/23 01:55:58;;;;;;;38.50;22.60;;;;;;;-1.86;85.06;99403.19;226321;1270;22571;-75
2023/11/23 02:01:03;;;;;;;32.30;18.80;;;;;;;-1.84;85.12;99395.98;226131;1276;23220;-75
2023/11/23 02:06:06;;;;;;;39.40;23.60;;;;;;;-1.81;85.53;99383.07;226239;1273;22585;-77
2023/11/23 02:11:09;;;;;;;39.40;22.10;;;;;;;-1.80;85.29;99365.02;226363;1270;22558;-75
2023/11/23 02:16:11;;;;;;;38.00;21.80;;;;;;;-1.78;85.58;99361.96;226252;1276;22552;-75
2023/11/23 02:21:14;;;;;;;32.30;18.90;;;;;;;-1.75;85.65;99370.07;226343;1272;22539;-74
2023/11/23 02:26:16;;;;;;;43.70;24.20;;;;;;;-1.73;85.77;99366.15;226321;1274;22575;-76
2023/11/23 02:31:18;;;;;;;38.00;22.00;;;;;;;-1.70;85.81;99368.40;226348;1276;24272;-76
2023/11/23 02:36:20;;;;;;;38.50;23.10;;;;;;;-1.66;85.86;99366.38;226250;1276;22544;-76
2023/11/23 02:41:22;;;;;;;33.30;18.60;;;;;;;-1.61;85.67;99371.27;226363;1273;22574;-74
2023/11/23 02:46:24;;;;;;;31.10;17.80;;;;;;;-1.55;86.15;99361.71;226206;1276;22557;-74
2023/11/23 02:51:26;;;;;;;35.00;20.60;;;;;;;-1.49;86.01;99354.92;226221;1276;22561;-74
2023/11/23 02:56:28;;;;;;;39.20;22.90;;;;;;;-1.42;86.08;99341.02;226350;1273;22941;-74
2023/11/23 03:01:33;;;;;;;37.10;21.10;;;;;;;-1.35;86.21;99326.60;226243;1276;22534;-75
2023/11/23 03:06:36;;;;;;;37.00;21.00;;;;;;;-1.29;86.13;99314.11;226224;1273;22566;-75
2023/11/23 03:11:40;;;;;;;35.50;21.20;;;;;;;-1.24;86.23;99316.87;226326;1276;24305;-76
2023/11/23 03:16:44;;;;;;;35.00;19.90;;;;;;;-1.20;86.10;99311.61;226228;1276;22557;-74
2023/11/23 03:21:46;;;;;;;37.30;21.30;;;;;;;-1.16;86.28;99309.73;226332;1276;23354;-74
2023/11/23 03:26:48;;;;;;;36.90;21.50;;;;;;;-1.13;86.32;99301.75;226407;1273;22628;-75
2023/11/23 03:31:51;;;;;;;34.00;19.50;;;;;;;-1.10;86.25;99296.23;226351;1274;22639;-75
2023/11/23 03:36:55;;;;;;;33.00;19.60;;;;;;;-1.08;85.95;99271.73;226392;1273;25029;-74
2023/11/23 03:41:57;;;;;;;39.10;21.40;;;;;;;-1.04;86.43;99265.61;226276;1276;22654;-75
2023/11/23 03:46:59;;;;;;;43.40;23.40;;;;;;;-1.00;86.35;99265.30;226312;1273;22612;-75
2023/11/23 03:52:01;;;;;;;35.10;19.60;;;;;;;-0.95;86.60;99262.87;226249;1276;22605;-75
2023/11/23 03:57:04;;;;;;;34.50;20.20;;;;;;;-0.90;86.21;99250.14;226295;1270;22548;-74
2023/11/23 04:02:06;;;;;;;37.30;20.30;;;;;;;-0.85;86.45;99250.45;226405;1276;22562;-74
2023/11/23 04:07:09;;;;;;;37.30;20.80;;;;;;;-0.81;86.41;99247.76;226324;1273;22720;-74
2023/11/23 04:12:11;;;;;;;35.40;19.20;;;;;;;-0.75;86.37;99234.91;226212;1270;25950;-75
2023/11/23 04:17:13;;;;;;;34.10;19.20;;;;;;;-0.70;86.31;99228.81;226305;1274;24400;-75
2023/11/23 04:22:15;;;;;;;40.00;21.70;;;;;;;-0.65;86.33;99225.21;226373;1270;22554;-75
2023/11/23 04:27:17;;;;;;;32.60;17.30;;;;;;;-0.60;86.17;99227.98;226356;1254;22546;-76
2023/11/23 04:32:19;;;;;;;34.90;19.90;;;;;;;-0.57;86.47;99212.55;226338;1276;22554;-76
2023/11/23 04:37:23;;;;;;;39.70;21.00;;;;;;;-0.55;86.43;99201.29;226357;1275;22552;-75
2023/11/23 04:42:26;;;;;;;33.20;19.10;;;;;;;-0.52;86.38;99193.70;226533;1276;22551;-74
2023/11/23 04:47:29;;;;;;;31.40;17.70;;;;;;;-0.51;86.32;99189.60;226226;1273;22619;-75
2023/11/23 04:52:31;;;;;;;31.60;17.70;;;;;;;-0.49;86.13;99184.96;226297;1273;22615;-74
2023/11/23 04:57:33;;;;;;;34.00;20.90;;;;;;;-0.46;86.24;99182.14;226350;1273;22558;-74
2023/11/23 05:02:35;;;;;;;34.50;20.20;;;;;;;-0.41;86.37;99161.23;226368;1273;22556;-74
2023/11/23 05:07:39;;;;;;;29.20;16.10;;;;;;;-0.37;86.21;99159.73;226152;1275;22551;-75
2023/11/23 05:12:41;;;;;;;31.40;16.80;;;;;;;-0.31;86.13;99147.92;226273;1276;22607;-75
2023/11/23 05:17:43;;;;;;;29.40;16.60;;;;;;;-0.28;86.29;99142.42;226193;1275;22531;-75
2023/11/23 05:22:45;;;;;;;27.50;15.20;;;;;;;-0.24;86.12;99130.75;226195;1275;22577;-74
2023/11/23 05:27:47;;;;;;;33.30;18.00;;;;;;;-0.21;85.89;99133.66;226260;1273;25301;-74
2023/11/23 05:32:50;;;;;;;33.90;18.90;;;;;;;-0.19;86.18;99121.39;226202;1257;22542;-74
2023/11/23 05:37:52;;;;;;;27.10;16.80;;;;;;;-0.15;86.14;99115.05;226312;1276;22579;-74
2023/11/23 05:42:54;;;;;;;30.60;16.90;;;;;;;-0.11;85.97;99108.98;226232;1276;22559;-74
2023/11/23 05:48:06;;;;;;;22.80;11.90;;;;;;;-0.07;85.83;99099.38;226243;1275;22541;-75
2023/11/23 05:53:08;;;;;;;30.20;15.60;;;;;;;-0.03;85.83;99091.63;226339;1270;24228;-74
2023/11/23 05:58:10;;;;;;;31.20;18.40;;;;;;;0.04;85.94;99091.42;226272;1273;22561;-75
2023/11/23 06:03:12;;;;;;;27.10;15.80;;;;;;;0.10;85.72;99074.52;226425;1276;22524;-75
2023/11/23 06:08:15;;;;;;;27.40;15.30;;;;;;;0.16;85.77;99054.66;226201;1275;22898;-74
2023/11/23 06:13:17;;;;;;;30.80;17.60;;;;;;;0.21;85.69;99047.59;226275;1276;22886;-74
2023/11/23 06:18:21;;;;;;;28.10;17.00;;;;;;;0.25;85.53;99042.40;226312;1272;22545;-74
2023/11/23 06:23:24;;;;;;;29.20;17.20;;;;;;;0.29;85.49;99035.66;226253;1273;22565;-74
2023/11/23 06:28:26;;;;;;;30.30;15.60;;;;;;;0.33;85.45;99027.35;226323;1272;22546;-73
2023/11/23 06:33:28;;;;;;;29.70;16.10;;;;;;;0.39;85.36;99021.05;226238;1276;22558;-73
2023/11/23 06:38:30;;;;;;;28.70;17.00;;;;;;;0.44;85.27;99011.54;226268;1273;22560;-73
2023/11/23 06:43:32;;;;;;;29.60;18.30;;;;;;;0.48;85.21;99009.59;226335;1267;22551;-73
2023/11/23 06:48:34;;;;;;;25.00;15.80;;;;;;;0.56;85.25;99010.95;226314;1256;22559;-75
2023/11/23 06:53:44;;;;;;;26.10;15.50;;;;;;;0.62;85.00;99007.15;226020;1269;22550;-74
2023/11/23 06:58:47;;;;;;;;;;;;;;;0.67;85.09;99000.50;225876;1253;25930;-74
2023/11/23 07:03:50;;;;;;;27.30;17.00;;;;;;;0.69;84.85;99000.15;226059;1269;22569;-76
2023/11/23 07:08:52;;;;;;;26.60;14.90;;;;;;;0.71;85.08;98990.13;225764;1253;22536;-76
2023/11/23 07:13:55;;;;;;;26.60;16.60;;;;;;;0.75;85.08;98977.15;225948;1256;22552;-75
2023/11/23 07:18:58;;;;;;;25.10;14.70;;;;;;;0.78;84.91;98973.65;225666;1265;25332;-77
2023/11/23 07:24:00;;;;;;;27.10;15.90;;;;;;;0.81;84.96;98971.48;225727;1268;22579;-76
2023/11/23 07:29:03;;;;;;;26.60;15.70;;;;;;;0.86;85.07;98965.52;225805;1257;22543;-75
2023/11/23 07:34:05;;;;;;;30.00;16.60;;;;;;;0.93;84.95;98949.38;225542;1260;22532;-78
2023/11/23 07:39:10;;;;;;;23.10;12.40;;;;;;;1.01;84.90;98944.18;225604;1256;22576;-76
2023/11/23 07:44:13;;;;;;;30.10;17.20;;;;;;;1.09;84.54;98957.13;225806;1269;22598;-74
2023/11/23 07:49:15;;;;;;;28.00;16.60;;;;;;;1.10;84.56;98954.38;225782;1269;22570;-76
2023/11/23 07:54:17;;;;;;;30.90;17.80;;;;;;;1.15;84.70;98957.28;225597;1262;22543;-74
2023/11/23 07:59:19;;;;;;;32.00;18.50;;;;;;;1.20;84.43;98955.83;225645;1253;22549;-73
2023/11/23 08:04:21;;;;;;;30.00;16.90;;;;;;;1.24;84.27;98958.96;225434;1271;22569;-73
2023/11/23 08:09:23;;;;;;;32.30;18.70;;;;;;;1.29;84.27;98949.04;225745;1269;26278;-74
2023/11/23 08:14:26;;;;;;;34.60;19.10;;;;;;;1.34;84.32;98948.58;225737;1256;22539;-77
2023/11/23 08:19:30;;;;;;;28.20;16.70;;;;;;;1.42;84.32;98940.84;225665;1256;22608;-75
2023/11/23 08:24:32;;;;;;;30.80;18.90;;;;;;;1.52;84.21;98933.44;225771;1269;22573;-75
2023/11/23 08:29:35;;;;;;;32.50;19.80;;;;;;;1.62;84.09;98930.65;225912;1269;22564;-75
2023/11/23 08:34:37;;;;;;;28.70;17.50;;;;;;;1.69;84.06;98921.75;225637;1267;22663;-75
2023/11/23 08:39:49;;;;;;;27.70;17.60;;;;;;;1.78;83.82;98920.11;225813;1268;22615;-75
2023/11/23 08:44:58;;;;;;;31.30;19.00;;;;;;;1.92;84.05;98918.73;225702;1261;22945;-76
2023/11/23 08:50:05;;;;;;;26.20;15.50;;;;;;;2.06;83.30;98919.98;225483;1253;24399;-76
2023/11/23 08:55:11;;;;;;;35.10;20.00;;;;;;;2.12;83.14;98909.36;225548;1271;22833;-75
2023/11/23 09:00:16;;;;;;;27.70;15.10;;;;;;;2.13;82.82;98904.61;225568;1272;22565;-76
2023/11/23 09:05:19;;;;;;;37.70;21.80;;;;;;;2.13;82.70;98898.89;225924;1266;23995;-77
2023/11/23 09:10:26;;;;;;;31.50;18.20;;;;;;;2.15;82.87;98883.58;225474;1256;22556;-76
2023/11/23 09:15:29;;;;;;;36.30;19.90;;;;;;;2.24;82.89;98869.09;225789;1272;24229;-77
2023/11/23 09:20:31;;;;;;;31.40;17.80;;;;;;;2.33;82.64;98859.23;226008;1253;22543;-75
2023/11/23 09:25:33;;;;;;;33.90;20.00;;;;;;;2.47;82.57;98838.73;225898;1273;22548;-75
2023/11/23 09:30:36;;;;;;;29.20;17.70;;;;;;;2.59;82.24;98828.78;225776;1262;22651;-76
2023/11/23 09:35:39;;;;;;;33.20;17.60;;;;;;;2.67;82.04;98819.55;225808;1272;24393;-76
2023/11/23 09:40:41;;;;;;;31.80;19.20;;;;;;;2.69;81.71;98811.15;225833;1265;22734;-76
2023/11/23 09:45:43;;;;;;;27.60;17.80;;;;;;;2.70;81.56;98809.15;225982;1269;22555;-76
2023/11/23 09:50:46;;;;;;;29.10;17.90;;;;;;;2.71;81.25;98801.08;225843;1262;22548;-77
2023/11/23 09:55:49;;;;;;;27.00;17.30;;;;;;;2.74;81.56;98803.58;225815;1272;22546;-78
2023/11/23 10:00:51;;;;;;;26.00;16.90;;;;;;;2.78;81.27;98789.83;225677;1260;22592;-78
2023/11/23 10:05:54;;;;;;;23.10;14.40;;;;;;;2.78;81.01;98779.45;225772;1272;22654;-78
2023/11/23 10:10:59;;;;;;;21.60;14.20;;;;;;;2.75;80.79;98768.19;225640;1270;22583;-78
2023/11/23 10:16:04;;;;;;;24.80;16.50;;;;;;;2.76;80.83;98770.05;225820;1263;23084;-77
2023/11/23 10:21:07;;;;;;;28.20;14.60;;;;;;;2.83;81.07;98756.55;225779;1259;25216;-77
2023/11/23 10:26:10;;;;;;;24.90;11.70;;;;;;;2.94;80.92;98749.81;225839;1266;22567;-77
2023/11/23 10:31:12;;;;;;;39.90;13.00;;;;;;;3.04;80.48;98746.08;225668;1269;22565;-76
2023/11/23 10:36:16;;;;;;;24.00;16.30;;;;;;;3.14;80.72;98735.91;225806;1275;22543;-76
2023/11/23 10:41:18;;;;;;;21.60;13.40;;;;;;;3.25;80.51;98717.30;225735;1259;22545;-74
2023/11/23 10:46:23;;;;;;;21.30;14.20;;;;;;;3.37;80.31;98704.92;225756;1263;22543;-76
2023/11/23 10:51:27;;;;;;;21.70;13.80;;;;;;;3.50;80.40;98686.02;225717;1256;25310;-76
2023/11/23 10:56:31;;;;;;;18.00;11.90;;;;;;;3.62;79.97;98668.33;225639;1276;22570;-76
2023/11/23 11:01:37;;;;;;;18.30;12.10;;;;;;;3.72;80.01;98655.35;225752;1256;22549;-76
2023/11/23 11:06:40;;;;;;;17.50;10.80;;;;;;;3.84;80.03;98652.81;225852;1273;26126;-78
2023/11/23 11:11:47;;;;;;;17.80;11.80;;;;;;;3.93;79.36;98644.14;228343;1258;24382;-76
2023/11/23 11:17:02;;;;;;;16.10;10.70;;;;;;;3.97;79.25;98631.15;225840;1259;22554;-77
2023/11/23 11:22:12;;;;;;;16.00;9.00;;;;;;;4.05;79.16;98616.08;226309;1269;144442;-77
2023/11/23 11:27:14;;;;;;;18.40;11.00;;;;;;;4.06;78.36;98602.23;228216;1269;22544;-77
2023/11/23 11:32:17;;;;;;;13.20;9.30;;;;;;;4.12;78.74;98599.55;225691;1272;25162;-76
2023/11/23 11:37:20;;;;;;;14.50;9.90;;;;;;;4.14;78.22;98589.41;225515;1256;22713;-78
2023/11/23 11:42:23;;;;;;;15.70;11.00;;;;;;;4.11;78.02;98573.49;225683;1269;24227;-79
2023/11/23 11:47:25;;;;;;;15.10;11.20;;;;;;;4.08;78.61;98570.17;225850;1275;22895;-76
2023/11/23 11:52:30;;;;;;;15.70;11.00;;;;;;;4.09;78.79;98567.27;225894;1273;22567;-76
2023/11/23 11:57:39;;;;;;;21.10;11.70;;;;;;;4.13;79.03;98555.02;225890;1261;22557;-75
2023/11/23 12:02:42;;;;;;;16.50;10.40;;;;;;;4.20;78.84;98543.39;225749;1262;22553;-75
2023/11/23 12:07:52;;;;;;;13.20;10.00;;;;;;;4.22;78.28;98540.08;225864;1272;24232;-76
2023/11/23 12:12:54;;;;;;;14.20;10.90;;;;;;;4.18;78.52;98529.74;225520;1275;22575;-75
2023/11/23 12:17:58;;;;;;;12.60;9.20;;;;;;;4.19;78.29;98527.73;225643;1277;22546;-76
2023/11/23 12:23:04;;;;;;;13.50;10.10;;;;;;;4.21;78.29;98515.09;225929;1255;22561;-77
2023/11/23 12:28:12;;;;;;;13.10;10.00;;;;;;;4.25;78.15;98512.27;225789;1272;24225;-76
2023/11/23 12:33:14;;;;;;;11.90;9.00;;;;;;;4.27;78.04;98490.01;225803;1263;22598;-77
2023/11/23 12:38:16;;;;;;;13.50;9.30;;;;;;;4.27;78.32;98497.10;225791;1273;22536;-76
2023/11/23 12:43:22;;;;;;;11.60;8.40;;;;;;;4.28;78.35;98496.16;225875;1264;22544;-76
2023/11/23 12:48:24;;;;;;;14.40;9.80;;;;;;;4.31;78.55;98487.80;225977;1272;22538;-76
2023/11/23 12:53:26;;;;;;;13.20;9.40;;;;;;;4.32;78.51;98471.55;225821;1265;22577;-77
2023/11/23 12:58:31;;;;;;;16.70;10.30;;;;;;;4.26;78.38;98465.48;225927;1258;22539;-76
2023/11/23 13:03:33;;;;;;;15.40;9.80;;;;;;;4.20;78.31;98464.17;226138;1252;22540;-76
2023/11/23 13:08:36;;;;;;;17.00;12.10;;;;;;;4.17;78.63;98470.23;226037;1261;25373;-77
2023/11/23 13:13:41;;;;;;;13.90;8.60;;;;;;;4.15;78.78;98447.26;224805;1270;23099;-77
2023/11/23 13:18:44;;;;;;;15.10;10.20;;;;;;;4.12;78.76;98438.71;224760;1269;22628;-78
2023/11/23 13:24:06;;;;;;;14.80;10.20;;;;;;;4.11;79.11;98448.05;225136;1275;22539;-74
2023/11/23 13:29:10;;;;;;;15.10;10.50;;;;;;;4.10;78.89;98442.69;225584;1272;22558;-75
2023/11/23 13:34:13;;;;;;;13.30;8.80;;;;;;;4.07;78.84;98431.52;225707;1253;22604;-76
2023/11/23 13:39:19;;;;;;;12.00;8.30;;;;;;;4.04;79.27;98426.43;225816;1269;22550;-74
2023/11/23 13:44:21;;;;;;;17.20;10.20;;;;;;;4.00;79.36;98415.85;225935;1269;22543;-74
2023/11/23 13:49:25;;;;;;;11.10;8.50;;;;;;;3.98;79.56;98397.41;225878;1266;22554;-74
2023/11/23 13:54:27;;;;;;;13.30;6.90;;;;;;;3.97;79.60;98391.62;225641;1274;23059;-74
2023/11/23 13:59:33;;;;;;;18.70;8.90;;;;;;;3.94;79.84;98389.63;225543;1259;22572;-75
2023/11/23 14:04:38;;;;;;;14.30;8.30;;;;;;;3.93;80.05;98374.96;225491;1256;22568;-74
2023/11/23 14:09:40;;;;;;;11.80;7.40;;;;;;;3.87;79.96;98366.93;225622;1266;22942;-75
2023/11/23 14:14:42;;;;;;;13.60;7.60;;;;;;;3.83;80.25;98355.23;225640;1265;22547;-75
2023/11/23 14:19:44;;;;;;;13.30;8.20;;;;;;;3.79;80.50;98352.14;225532;1266;22543;-75
2023/11/23 14:24:49;;;;;;;13.10;8.50;;;;;;;3.76;80.69;98343.91;225625;1273;22569;-75
2023/11/23 14:29:51;;;;;;;12.30;8.30;;;;;;;3.75;80.82;98332.67;225754;1269;22576;-74
2023/11/23 14:34:53;;;;;;;12.40;8.40;;;;;;;3.77;81.13;98332.45;225819;1256;22542;-77
2023/11/23 14:39:55;;;;;;;14.40;10.10;;;;;;;3.80;81.26;98320.69;225645;1257;22610;-74
2023/11/23 14:44:58;;;;;;;16.10;9.50;;;;;;;3.84;81.57;98308.36;225694;1269;22570;-73
2023/11/23 14:50:04;;;;;;;12.10;7.80;;;;;;;3.91;81.43;98291.49;225670;1256;22551;-76
2023/11/23 14:55:06;;;;;;;14.40;9.00;;;;;;;3.96;81.42;98296.55;225828;1258;22550;-76
2023/11/23 15:00:09;;;;;;;15.20;8.40;;;;;;;4.01;81.39;98300.55;225561;1272;22545;-75
2023/11/23 15:05:12;;;;;;;11.70;7.90;;;;;;;4.06;81.63;98292.06;225528;1270;22583;-76
2023/11/23 15:10:18;;;;;;;12.30;8.50;;;;;;;4.08;81.36;98281.14;225632;1275;25093;-75
2023/11/23 15:15:23;;;;;;;12.30;7.00;;;;;;;4.12;81.67;98268.96;225841;1272;22539;-75
2023/11/23 15:20:31;;;;;;;11.50;8.70;;;;;;;4.12;81.58;98261.22;225656;1272;24228;-77
2023/11/23 15:25:35;;;;;;;14.30;7.90;;;;;;;4.17;81.47;98259.15;225813;1272;22543;-76
2023/11/23 15:30:39;;;;;;;13.80;8.40;;;;;;;4.22;81.41;98248.61;226210;1272;25366;-76
2023/11/23 15:35:43;;;;;;;11.10;7.60;;;;;;;4.27;81.31;98231.67;226553;1272;22555;-77
2023/11/23 15:40:45;;;;;;;12.10;8.60;;;;;;;4.30;81.32;98230.55;226230;1275;22556;-77
2023/11/23 15:45:47;;;;;;;11.70;8.00;;;;;;;4.38;81.18;98227.85;226242;1274;22539;-76
2023/11/23 15:50:49;;;;;;;12.00;8.50;;;;;;;4.43;81.19;98221.16;226322;1276;22541;-78
2023/11/23 15:55:51;;;;;;;12.60;8.50;;;;;;;4.47;81.02;98214.80;226370;1275;22643;-77
2023/11/23 16:00:53;;;;;;;11.20;7.80;;;;;;;4.51;81.13;98216.31;226354;1272;24762;-77
2023/11/23 16:05:55;;;;;;;9.50;6.30;;;;;;;4.56;81.04;98201.14;226428;1275;22545;-77
2023/11/23 16:10:57;;;;;;;11.80;8.30;;;;;;;4.58;80.82;98174.94;226121;1272;22558;-76
2023/11/23 16:15:59;;;;;;;11.50;7.60;;;;;;;4.64;80.90;98178.80;226392;1274;22502;-77
2023/11/23 16:21:02;;;;;;;10.90;7.00;;;;;;;4.68;81.03;98173.69;226415;1275;22847;-77
2023/11/23 16:26:04;;;;;;;11.20;6.90;;;;;;;4.74;81.13;98154.71;226417;1273;22547;-77
2023/11/23 16:31:06;;;;;;;9.60;6.80;;;;;;;4.79;80.71;98147.38;226393;1269;23776;-77
2023/11/23 16:36:15;;;;;;;9.70;6.00;;;;;;;4.82;81.07;98121.86;226379;1266;22539;-77
2023/11/23 16:41:34;;;;;;;10.50;7.10;;;;;;;4.85;81.05;98116.30;226477;1266;22547;-77
2023/11/23 16:46:36;;;;;;;11.20;7.50;;;;;;;4.88;80.98;98107.30;226330;1275;22548;-76
2023/11/23 16:51:38;;;;;;;10.30;6.80;;;;;;;4.91;81.08;98096.77;226277;1270;22551;-77
2023/11/23 16:56:41;;;;;;;9.60;7.20;;;;;;;4.97;80.87;98083.63;226314;1272;22531;-76
2023/11/23 17:01:45;;;;;;;11.10;7.00;;;;;;;5.01;80.94;98083.89;226338;1275;22540;-77
2023/11/23 17:06:48;;;;;;;10.60;6.30;;;;;;;5.06;81.00;98071.81;226544;1275;23154;-78
2023/11/23 17:11:52;;;;;;;7.70;4.70;;;;;;;5.10;80.82;98058.64;226300;1269;22542;-77
2023/11/23 17:16:55;;;;;;;10.00;7.00;;;;;;;5.12;80.72;98050.55;227286;1272;22566;-76
2023/11/23 17:21:59;;;;;;;7.30;5.30;;;;;;;5.15;81.04;98047.02;226317;1272;23292;-77
2023/11/23 17:27:02;;;;;;;6.80;5.00;;;;;;;5.20;80.69;98030.02;226382;1275;22531;-78
2023/11/23 17:32:06;;;;;;;7.60;5.30;;;;;;;5.23;80.84;98017.62;226398;1272;22555;-77
2023/11/23 17:37:09;;;;;;;5.90;4.60;;;;;;;5.28;80.94;98015.38;226383;1272;22558;-76
2023/11/23 17:42:11;;;;;;;6.30;4.80;;;;;;;5.31;81.02;97999.97;226334;1272;22548;-76
2023/11/23 17:47:14;;;;;;;8.60;5.80;;;;;;;5.35;80.62;98003.77;226351;1273;22536;-77
2023/11/23 17:52:16;;;;;;;6.70;4.20;;;;;;;5.39;80.72;97994.89;226385;1272;22550;-77
2023/11/23 17:57:19;;;;;;;7.90;5.20;;;;;;;5.41;80.68;97979.83;226376;1273;22609;-77
2023/11/23 18:02:21;;;;;;;5.00;3.90;;;;;;;5.41;80.80;97960.77;226376;1275;22562;-77
2023/11/23 18:07:24;;;;;;;6.80;4.10;;;;;;;5.43;80.89;97949.37;226371;1272;25252;-76
2023/11/23 18:12:26;;;;;;;6.80;4.70;;;;;;;5.44;80.77;97941.08;226347;1273;22559;-76
2023/11/23 18:17:28;;;;;;;9.00;5.10;;;;;;;5.43;81.15;97941.02;226392;1275;22575;-77
2023/11/23 18:22:31;;;;;;;8.20;5.30;;;;;;;5.42;81.10;97927.53;226351;1272;22568;-77
2023/11/23 18:27:34;;;;;;;9.20;5.10;;;;;;;5.41;80.95;97918.41;226382;1266;22554;-76
2023/11/23 18:32:36;;;;;;;8.00;5.10;;;;;;;5.40;81.19;97910.33;226382;1275;22596;-77
2023/11/23 18:37:38;;;;;;;6.00;4.60;;;;;;;5.39;81.70;97891.25;226327;1275;22593;-76
2023/11/23 18:42:42;;;;;;;7.90;5.40;;;;;;;5.39;81.73;97885.29;226296;1276;22638;-76
2023/11/23 18:47:45;;;;;;;6.00;4.80;;;;;;;5.39;81.95;97859.19;226348;1276;22686;-76
2023/11/23 18:52:47;;;;;;;6.70;5.10;;;;;;;5.40;81.73;97841.47;226297;1273;22534;-76
2023/11/23 18:57:49;;;;;;;5.70;4.40;;;;;;;5.41;82.10;97825.33;226157;1275;24332;-76
2023/11/23 19:02:53;;;;;;;6.50;4.40;;;;;;;5.43;82.23;97804.48;226372;1275;22549;-76
2023/11/23 19:07:55;;;;;;;5.60;4.40;;;;;;;5.44;82.64;97787.02;226340;1276;25370;-76
2023/11/23 19:12:58;;;;;;;7.30;4.70;;;;;;;5.44;82.42;97760.51;226359;1276;22561;-76
2023/11/23 19:18:09;;;;;;;7.00;4.90;;;;;;;5.41;82.43;97737.92;226391;1273;22556;-76
2023/11/23 19:23:13;;;;;;;7.80;4.60;;;;;;;5.39;82.82;97729.63;226442;1272;22548;-77
2023/11/23 19:28:16;;;;;;;5.40;4.20;;;;;;;5.37;82.89;97721.31;226386;1275;24244;-78
2023/11/23 19:33:19;;;;;;;8.70;5.70;;;;;;;5.37;83.19;97699.50;226279;1275;22550;-76
2023/11/23 19:38:22;;;;;;;10.70;5.50;;;;;;;5.37;83.23;97682.09;226491;1270;22558;-77
2023/11/23 19:43:24;;;;;;;8.90;5.80;;;;;;;5.36;83.23;97671.55;226350;1275;22590;-78
2023/11/23 19:48:27;;;;;;;8.10;6.30;;;;;;;5.35;83.28;97640.00;226373;1273;23010;-78
2023/11/23 19:53:38;;;;;;;9.40;6.10;;;;;;;5.34;83.43;97628.77;226381;1275;22574;-77
2023/11/23 19:58:40;;;;;;;8.60;6.00;;;;;;;5.33;83.75;97598.19;226270;1275;25369;-77
2023/11/23 20:03:43;;;;;;;8.60;6.10;;;;;;;5.33;83.83;97594.89;226352;1275;22657;-77
2023/11/23 20:08:46;;;;;;;8.50;5.60;;;;;;;5.34;84.03;97577.69;226313;1275;22942;-77
2023/11/23 20:13:48;;;;;;;8.80;5.70;;;;;;;5.36;83.47;97564.15;226327;1275;22598;-77
2023/11/23 20:18:50;;;;;;;7.80;4.90;;;;;;;5.39;84.01;97547.36;226345;1270;22557;-77
2023/11/23 20:23:52;;;;;;;8.80;5.70;;;;;;;5.42;84.01;97529.34;226253;1275;22559;-76
2023/11/23 20:28:55;;;;;;;7.80;5.30;;;;;;;5.45;83.80;97522.92;226396;1273;23080;-75
2023/11/23 20:33:57;;;;;;;5.70;4.50;;;;;;;5.48;83.61;97535.16;226302;1275;22589;-77
2023/11/23 20:39:00;;;;;;;9.90;5.70;;;;;;;5.52;83.97;97508.26;226355;1273;23319;-76
2023/11/23 20:44:02;;;;;;;5.20;4.20;;;;;;;5.56;83.96;97503.23;226439;1267;22570;-77
2023/11/23 20:49:06;;;;;;;6.60;4.40;;;;;;;5.61;84.05;97495.20;226394;1275;24491;-76
2023/11/23 20:54:08;;;;;;;6.00;3.70;;;;;;;5.70;84.21;97484.41;226164;1275;22555;-76
2023/11/23 20:59:12;;;;;;;4.60;3.10;;;;;;;5.78;84.32;97477.79;226285;1275;22653;-77
2023/11/23 21:04:15;;;;;;;4.90;3.40;;;;;;;5.88;83.72;97479.54;226408;1273;22548;-76
2023/11/23 21:09:22;;;;;;;3.80;2.50;;;;;;;5.95;83.92;97474.13;226410;1273;22617;-77
2023/11/23 21:14:24;;;;;;;5.50;3.60;;;;;;;6.02;84.04;97471.11;226315;1272;24760;-77
2023/11/23 21:19:26;;;;;;;4.10;3.10;;;;;;;6.11;84.34;97468.82;226356;1273;25066;-76
2023/11/23 21:24:29;;;;;;;5.50;3.30;;;;;;;6.21;83.72;97448.39;226254;1270;22550;-78
2023/11/23 21:29:31;;;;;;;4.40;3.40;;;;;;;6.33;83.90;97438.94;226218;1264;22547;-77
2023/11/23 21:34:33;;;;;;;3.90;3.00;;;;;;;6.39;83.40;97438.28;226298;1274;22548;-76
2023/11/23 21:39:35;;;;;;;4.00;3.10;;;;;;;6.45;83.71;97413.00;226366;1271;22573;-76
2023/11/23 21:44:37;;;;;;;3.90;3.00;;;;;;;6.51;83.53;97407.59;226366;1275;22563;-77
2023/11/23 21:49:41;;;;;;;4.00;3.00;;;;;;;6.55;82.93;97383.36;226260;1270;22540;-76
2023/11/23 21:54:43;;;;;;;3.20;2.30;;;;;;;6.51;83.44;97363.30;226362;1272;22740;-76
2023/11/23 21:59:58;;;;;;;3.40;2.70;;;;;;;6.38;84.33;97353.73;226390;1269;22577;-76
2023/11/23 22:05:00;;;;;;;3.20;2.90;;;;;;;6.26;85.34;97334.52;226423;1273;23298;-76
2023/11/23 22:10:02;;;;;;;3.10;2.10;;;;;;;6.12;85.66;97327.09;226385;1272;22636;-77
2023/11/23 22:15:06;;;;;;;3.40;2.90;;;;;;;6.01;86.88;97328.60;226296;1273;22544;-76
2023/11/23 22:20:09;;;;;;;4.50;3.60;;;;;;;5.94;86.72;97313.13;226425;1273;22583;-76
2023/11/23 22:25:12;;;;;;;3.70;2.90;;;;;;;5.89;86.54;97315.49;226533;1273;22549;-77
2023/11/23 22:30:18;;;;;;;3.50;3.20;;;;;;;5.91;86.87;97298.16;226596;1275;22538;-77
2023/11/23 22:35:20;;;;;;;4.30;3.30;;;;;;;5.94;87.16;97286.06;226283;1275;22557;-76
2023/11/23 22:40:23;;;;;;;5.90;3.70;;;;;;;5.95;86.95;97262.11;226386;1273;22897;-77
2023/11/23 22:45:25;;;;;;;3.40;2.80;;;;;;;5.87;86.63;97254.38;226327;1272;22597;-77
2023/11/23 22:50:27;;;;;;;6.40;4.50;;;;;;;5.78;86.84;97238.08;226317;1273;22547;-78
2023/11/23 22:55:29;;;;;;;7.00;4.80;;;;;;;5.66;86.74;97230.52;226386;1269;22563;-77
2023/11/23 23:00:35;;;;;;;5.90;4.60;;;;;;;5.54;86.43;97224.79;226393;1273;22535;-76
2023/11/23 23:05:39;;;;;;;5.00;4.40;;;;;;;5.43;86.60;97224.54;226260;1275;22554;-77
2023/11/23 23:10:43;;;;;;;5.70;4.60;;;;;;;5.37;86.73;97219.02;226354;1269;22552;-77
2023/11/23 23:15:45;;;;;;;5.30;3.80;;;;;;;5.35;86.70;97219.73;226398;1270;22671;-78
2023/11/23 23:20:47;;;;;;;4.10;3.60;;;;;;;5.30;86.42;97202.43;226315;1275;162958;-78
2023/11/23 23:25:49;;;;;;;4.60;3.20;;;;;;;5.24;86.42;97188.17;226378;1272;22583;-78